Time;durP1;ratioP1;P1;durP2;ratioP2;P2;SDS_P1;SDS_P2;PMS_P1;PMS_P2;Temp;Humidity;BMP_temperature;BMP_pressure;BME280_temperature;BME280_humidity;BME280_pressure;Samples;Min_cycle;Max_cycle;Signal;HPM_P1;HPM_P2
2023/12/05 00:01:42;;;;;;;0.40;0.40;;;;;;;3.93;100.00;97674.50;5025933;28;20527;-64
2023/12/05 00:04:08;;;;;;;0.40;0.40;;;;;;;1.66;100.00;97348.34;5025931;28;20049;-64
2023/12/05 00:06:36;;;;;;;0.40;0.40;;;;;;;3.91;100.00;97674.00;5024658;28;20729;-64
2023/12/05 00:09:03;;;;;;;0.40;0.40;;;;;;;4.21;100.00;97667.75;5026625;28;20049;-63
2023/12/05 00:11:30;;;;;;;0.40;0.40;;;;;;;4.49;100.00;97663.69;5026038;28;20567;-63
2023/12/05 00:13:57;;;;;;;0.50;0.50;;;;;;;4.55;99.15;97645.97;5026231;28;20085;-65
2023/12/05 00:16:24;;;;;;;0.45;0.45;;;;;;;3.84;97.58;97503.75;5026007;28;20140;-64
2023/12/05 00:18:51;;;;;;;0.50;0.50;;;;;;;3.79;96.47;97553.22;5026292;28;20052;-64
2023/12/05 00:21:18;;;;;;;0.40;0.40;;;;;;;4.33;98.59;97664.44;5026043;28;20107;-65
2023/12/05 00:23:45;;;;;;;0.50;0.50;;;;;;;4.20;98.24;97615.97;5026209;28;20057;-64
2023/12/05 00:26:11;;;;;;;0.43;0.43;;;;;;;4.39;97.21;97647.50;5026198;28;20058;-64
2023/12/05 00:28:38;;;;;;;0.40;0.40;;;;;;;4.09;99.34;97670.28;5024614;28;20065;-64
2023/12/05 00:31:08;;;;;;;0.40;0.40;;;;;;;4.01;100.00;97643.63;5025988;28;20052;-65
2023/12/05 00:33:35;;;;;;;0.40;0.40;;;;;;;4.01;100.00;97657.31;5024313;28;20957;-64
2023/12/05 00:36:02;;;;;;;0.40;0.40;;;;;;;4.12;100.00;97664.16;5026158;28;20049;-64
2023/12/05 00:38:29;;;;;;;0.40;0.40;;;;;;;4.38;100.00;97667.84;5025579;28;20052;-64
2023/12/05 00:40:59;;;;;;;0.40;0.40;;;;;;;4.44;99.38;97657.56;5025787;28;20104;-64
2023/12/05 00:43:26;;;;;;;0.40;0.40;;;;;;;4.15;99.69;97658.03;5025853;28;20056;-64
2023/12/05 00:45:55;;;;;;;0.40;0.40;;;;;;;4.22;100.00;97658.38;5025757;28;20513;-65
2023/12/05 00:48:22;;;;;;;0.45;0.45;;;;;;;4.06;99.84;97665.38;5024217;28;20053;-65
2023/12/05 00:50:50;;;;;;;0.40;0.40;;;;;;;4.15;100.00;97658.03;5025872;28;20095;-65
2023/12/05 00:53:17;;;;;;;0.40;0.40;;;;;;;4.27;99.22;97662.91;5024092;28;20119;-65
2023/12/05 00:55:43;;;;;;;0.40;0.40;;;;;;;4.00;100.00;97600.88;5024355;28;20049;-63
2023/12/05 00:58:10;;;;;;;0.40;0.40;;;;;;;4.54;98.44;97655.31;5025808;28;20400;-63
2023/12/05 01:00:37;;;;;;;0.45;0.45;;;;;;;4.82;95.62;97649.63;5025363;28;20455;-63
2023/12/05 01:03:04;;;;;;;0.50;0.50;;;;;;;4.69;94.64;97613.72;5024088;28;20049;-64
2023/12/05 01:05:33;;;;;;;0.40;0.40;;;;;;;4.94;94.17;97641.56;5025466;28;20060;-64
2023/12/05 01:08:00;;;;;;;0.40;0.40;;;;;;;5.01;94.58;97633.69;5025107;28;20093;-64
2023/12/05 01:10:27;;;;;;;0.50;0.50;;;;;;;5.10;92.80;97634.50;5025207;28;20080;-64
2023/12/05 01:12:55;;;;;;;0.50;0.50;;;;;;;4.54;92.00;97534.63;5025292;28;20088;-63
2023/12/05 01:15:21;;;;;;;0.50;0.50;;;;;;;5.18;92.23;97625.47;5023834;28;20045;-64
2023/12/05 01:17:48;;;;;;;0.50;0.50;;;;;;;4.96;91.60;97622.84;5024323;28;20077;-64
2023/12/05 01:20:15;;;;;;;0.40;0.40;;;;;;;4.36;95.12;97576.84;5023785;28;20076;-67
2023/12/05 01:22:42;;;;;;;0.50;0.50;;;;;;;4.90;95.30;97621.38;5023523;28;20508;-65
2023/12/05 01:25:09;;;;;;;0.40;0.40;;;;;;;5.09;93.78;97613.69;5010964;28;20072;-65
2023/12/05 01:27:36;;;;;;;0.50;0.50;;;;;;;4.76;92.67;97552.91;5003977;28;20061;-65
2023/12/05 01:30:04;;;;;;;0.50;0.50;;;;;;;4.33;92.43;97500.69;5005031;28;20460;-65
2023/12/05 01:32:31;;;;;;;0.45;0.45;;;;;;;5.06;92.60;97600.59;5005350;28;20057;-66
2023/12/05 01:34:58;;;;;;;0.50;0.50;;;;;;;5.23;92.23;97592.38;5005491;28;20062;-64
2023/12/05 01:37:25;;;;;;;0.50;0.50;;;;;;;5.28;91.61;97586.72;5004945;28;20080;-65
2023/12/05 01:39:52;;;;;;;0.50;0.50;;;;;;;5.30;91.85;97584.44;5005503;28;20076;-65
2023/12/05 01:42:19;;;;;;;0.50;0.50;;;;;;;5.05;90.88;97538.56;5005505;28;20045;-66
2023/12/05 01:44:46;;;;;;;0.40;0.40;;;;;;;5.36;90.41;97572.19;5005342;28;20437;-66
2023/12/05 01:47:16;;;;;;;0.43;0.43;;;;;;;5.51;89.30;97574.41;5003972;28;20049;-64
2023/12/05 01:49:44;;;;;;;0.50;0.50;;;;;;;5.54;89.03;97584.75;5005032;28;20052;-65
2023/12/05 01:52:12;;;;;;;0.50;0.50;;;;;;;5.55;88.92;97570.69;5003401;28;20488;-65
2023/12/05 01:54:39;;;;;;;0.50;0.50;;;;;;;4.97;88.20;97470.72;5003532;28;20060;-64
2023/12/05 01:57:06;;;;;;;0.40;0.40;;;;;;;5.33;88.19;97524.19;5003427;28;20054;-65
2023/12/05 01:59:33;;;;;;;0.50;0.50;;;;;;;5.28;88.84;97564.75;5004772;28;20064;-64
2023/12/05 02:02:01;;;;;;;0.40;0.40;;;;;;;5.10;90.46;97569.41;5009267;28;20424;-65
2023/12/05 02:04:31;;;;;;;0.50;0.50;;;;;;;4.95;90.75;97533.41;5024603;28;20171;-65
2023/12/05 02:06:59;;;;;;;0.50;0.50;;;;;;;5.25;90.15;97565.38;5024481;28;20055;-66
2023/12/05 02:09:26;;;;;;;0.50;0.50;;;;;;;4.93;91.40;97546.63;5024520;28;20046;-64
2023/12/05 02:11:53;;;;;;;0.40;0.40;;;;;;;5.01;90.59;97554.06;5024868;28;20049;-64
2023/12/05 02:14:20;;;;;;;0.40;0.40;;;;;;;4.95;90.77;97566.34;5024362;28;20140;-64
2023/12/05 02:16:58;;;;;;;0.50;0.50;;;;;;;4.71;90.87;97558.53;5023011;28;20067;-64
2023/12/05 02:19:49;;;;;;;0.50;0.50;;;;;;;4.77;90.92;97553.72;5024139;28;20610;-66
2023/12/05 02:22:56;;;;;;;0.40;0.40;;;;;;;4.76;92.11;97552.09;5023076;28;20060;-65
2023/12/05 02:25:57;;;;;;;0.40;0.40;;;;;;;4.74;91.60;97551.63;5024836;28;20053;-65
2023/12/05 02:28:24;;;;;;;0.50;0.50;;;;;;;4.79;91.48;97554.22;5026423;28;20053;-65
2023/12/05 02:30:51;;;;;;;0.45;0.45;;;;;;;4.46;90.86;97494.28;5023574;28;20053;-65
2023/12/05 02:33:18;;;;;;;0.50;0.50;;;;;;;4.53;90.27;97505.59;5008749;28;20160;-65
2023/12/05 02:35:47;;;;;;;0.40;0.40;;;;;;;4.86;90.41;97521.59;5008641;28;20052;-65
2023/12/05 02:38:30;;;;;;;0.50;0.50;;;;;;;3.91;91.83;97490.41;5008079;28;20072;-65
2023/12/05 02:40:56;;;;;;;0.40;0.40;;;;;;;4.30;94.15;97527.97;5008940;28;20072;-65
2023/12/05 02:43:33;;;;;;;0.40;0.40;;;;;;;4.45;93.23;97531.06;5008771;28;20140;-65
2023/12/05 02:46:02;;;;;;;0.50;0.50;;;;;;;4.54;91.92;97529.13;5008368;28;20061;-65
2023/12/05 02:48:37;;;;;;;0.50;0.50;;;;;;;4.58;90.75;97532.06;5008551;28;20060;-65
2023/12/05 02:51:04;;;;;;;0.45;0.45;;;;;;;4.58;89.75;97529.31;5007864;28;20532;-64
2023/12/05 02:53:32;;;;;;;0.40;0.40;;;;;;;4.72;89.59;97531.91;5008076;28;20123;-64
2023/12/05 02:55:58;;;;;;;0.43;0.43;;;;;;;4.77;89.44;97515.28;5007904;28;20085;-65
2023/12/05 02:58:25;;;;;;;0.50;0.50;;;;;;;4.91;88.51;97532.41;5008171;28;20057;-66
2023/12/05 03:00:52;;;;;;;0.40;0.40;;;;;;;4.75;89.04;97534.00;5007939;28;20046;-63
2023/12/05 03:03:19;;;;;;;0.40;0.40;;;;;;;4.52;89.36;97520.41;5020589;28;20096;-64
2023/12/05 03:05:46;;;;;;;0.50;0.50;;;;;;;4.52;89.69;97490.25;5027314;28;20123;-64
2023/12/05 03:08:13;;;;;;;0.50;0.50;;;;;;;4.81;88.51;97522.56;5027607;28;20474;-63
2023/12/05 03:10:39;;;;;;;0.40;0.40;;;;;;;4.82;87.75;97523.38;5027167;28;20049;-63
2023/12/05 03:13:10;;;;;;;0.40;0.40;;;;;;;4.49;88.81;97515.56;5027617;28;20114;-64
2023/12/05 03:15:36;;;;;;;0.40;0.40;;;;;;;4.47;89.78;97515.06;5027123;28;20413;-64
2023/12/05 03:18:03;;;;;;;0.50;0.50;;;;;;;4.29;89.22;97444.88;5027609;28;20057;-64
2023/12/05 03:20:30;;;;;;;0.50;0.50;;;;;;;3.74;88.46;97327.91;5026827;28;20069;-63
2023/12/05 03:22:57;;;;;;;0.40;0.40;;;;;;;4.62;87.57;97509.16;5027279;28;20935;-63
2023/12/05 03:25:24;;;;;;;0.40;0.40;;;;;;;4.52;89.34;97509.44;5025568;28;20532;-63
2023/12/05 03:27:50;;;;;;;0.50;0.50;;;;;;;4.88;88.61;97511.09;5027540;28;20338;-64
2023/12/05 03:30:17;;;;;;;0.40;0.40;;;;;;;4.41;88.68;97502.66;5027007;28;20060;-64
2023/12/05 03:32:44;;;;;;;0.40;0.40;;;;;;;4.13;91.17;97495.81;5027080;28;20646;-64
2023/12/05 03:35:11;;;;;;;0.40;0.40;;;;;;;3.98;93.27;97488.00;5026868;28;20127;-63
2023/12/05 03:37:38;;;;;;;0.50;0.50;;;;;;;3.30;91.82;97371.91;5026262;28;20114;-64
2023/12/05 03:40:05;;;;;;;0.40;0.40;;;;;;;4.01;92.99;97470.94;5025989;28;20049;-63
2023/12/05 03:42:32;;;;;;;0.40;0.40;;;;;;;3.42;92.23;97424.94;5026951;28;20050;-66
2023/12/05 03:44:59;;;;;;;0.40;0.40;;;;;;;3.35;93.97;97430.03;5026659;28;20061;-63
2023/12/05 03:47:26;;;;;;;0.40;0.40;;;;;;;3.30;94.41;97443.88;5026910;28;20413;-63
2023/12/05 03:49:52;;;;;;;0.40;0.40;;;;;;;3.83;95.43;97496.66;5026620;28;20057;-63
2023/12/05 03:52:19;;;;;;;0.40;0.40;;;;;;;3.42;94.30;97369.34;5026757;28;20049;-64
2023/12/05 03:54:46;;;;;;;0.40;0.40;;;;;;;3.79;93.38;97492.94;5026570;28;20144;-65
2023/12/05 03:57:13;;;;;;;0.40;0.40;;;;;;;4.00;94.45;97480.28;5026644;28;20598;-64
2023/12/05 03:59:39;;;;;;;0.40;0.40;;;;;;;4.12;93.06;97460.50;5026835;28;20061;-64
2023/12/05 04:02:06;;;;;;;0.50;0.50;;;;;;;4.55;91.35;97484.13;5010103;28;20061;-64
2023/12/05 04:04:33;;;;;;;0.47;0.47;;;;;;;4.46;90.40;97469.59;5026430;28;20343;-63
2023/12/05 04:07:00;;;;;;;0.40;0.40;;;;;;;3.96;90.11;97402.56;5024499;28;20535;-63
2023/12/05 04:09:27;;;;;;;0.35;0.35;;;;;;;3.92;92.77;97472.84;5026221;28;20077;-64
2023/12/05 04:11:54;;;;;;;0.40;0.40;;;;;;;3.70;94.27;97489.34;5026026;28;20061;-63
2023/12/05 04:14:21;;;;;;;0.40;0.40;;;;;;;3.69;94.88;97485.00;5025978;28;20140;-65
2023/12/05 04:16:48;;;;;;;0.32;0.32;;;;;;;2.83;96.19;97376.16;5024916;28;20057;-64
2023/12/05 04:19:15;;;;;;;0.40;0.40;;;;;;;3.28;96.79;97451.59;5025010;28;20075;-64
2023/12/05 04:21:42;;;;;;;0.40;0.40;;;;;;;2.90;97.57;97379.25;5024863;28;20071;-64
2023/12/05 04:24:09;;;;;;;0.40;0.40;;;;;;;3.94;97.17;97498.00;5025837;28;20558;-64
2023/12/05 04:26:35;;;;;;;0.40;0.40;;;;;;;4.05;95.17;97490.28;5025878;28;20055;-64
2023/12/05 04:29:02;;;;;;;0.40;0.40;;;;;;;4.25;94.58;97493.25;5025893;28;20049;-64
2023/12/05 04:31:29;;;;;;;0.40;0.40;;;;;;;4.46;94.56;97486.03;5024341;28;20435;-63
2023/12/05 04:33:56;;;;;;;0.40;0.40;;;;;;;4.22;92.57;97417.13;5025787;28;20136;-64
2023/12/05 04:36:24;;;;;;;0.40;0.40;;;;;;;4.28;91.32;97487.13;5025734;28;20061;-64
2023/12/05 04:38:51;;;;;;;0.40;0.40;;;;;;;3.77;92.64;97439.56;5025962;28;20053;-64
2023/12/05 04:41:17;;;;;;;0.40;0.40;;;;;;;3.37;94.94;97413.34;5024109;28;20432;-64
2023/12/05 04:43:45;;;;;;;0.40;0.40;;;;;;;4.23;94.48;97495.53;5008195;28;20492;-64
2023/12/05 04:46:11;;;;;;;0.50;0.50;;;;;;;4.26;93.22;97489.41;5025626;28;20175;-64
2023/12/05 04:48:38;;;;;;;0.40;0.40;;;;;;;4.27;94.14;97491.00;5025962;28;20053;-64
2023/12/05 04:51:05;;;;;;;0.40;0.40;;;;;;;4.26;93.36;97461.16;5024305;28;20061;-64
2023/12/05 04:53:32;;;;;;;0.40;0.40;;;;;;;3.73;93.83;97464.06;5024337;28;20500;-65
2023/12/05 04:55:59;;;;;;;0.40;0.40;;;;;;;3.54;96.52;97466.22;5024244;28;20053;-63
2023/12/05 04:58:26;;;;;;;0.40;0.40;;;;;;;4.04;95.45;97481.28;5025516;28;20049;-64
2023/12/05 05:00:53;;;;;;;0.40;0.40;;;;;;;3.37;98.19;97449.72;5025539;28;20056;-63
2023/12/05 05:03:23;;;;;;;0.40;0.40;;;;;;;3.06;100.00;97438.75;5025689;28;20463;-64
2023/12/05 05:05:50;;;;;;;0.40;0.40;;;;;;;3.49;100.00;97491.03;5025323;28;20073;-64
2023/12/05 05:08:17;;;;;;;0.40;0.40;;;;;;;3.51;100.00;97494.22;5023778;28;20112;-64
2023/12/05 05:10:44;;;;;;;0.40;0.40;;;;;;;3.77;100.00;97489.72;5025530;28;20088;-63
2023/12/05 05:13:11;;;;;;;0.40;0.40;;;;;;;3.41;100.00;97494.53;5023523;28;20045;-64
2023/12/05 05:15:38;;;;;;;0.40;0.40;;;;;;;3.50;100.00;97481.69;5024829;28;20061;-63
2023/12/05 05:18:04;;;;;;;0.38;0.38;;;;;;;3.35;100.00;97489.47;5023732;28;20045;-64
2023/12/05 05:20:31;;;;;;;0.40;0.40;;;;;;;2.52;100.00;97410.84;5024763;28;20049;-63
2023/12/05 05:22:58;;;;;;;0.30;0.30;;;;;;;3.10;100.00;97490.91;5024894;28;20132;-65
2023/12/05 05:25:25;;;;;;;0.32;0.32;;;;;;;3.34;100.00;97490.59;5024738;28;20069;-63
2023/12/05 05:27:52;;;;;;;0.40;0.40;;;;;;;3.55;100.00;97495.25;5025023;28;20111;-63
2023/12/05 05:30:19;;;;;;;0.40;0.40;;;;;;;3.32;100.00;97496.38;5024773;28;20057;-63
2023/12/05 05:32:46;;;;;;;0.30;0.30;;;;;;;3.63;100.00;97501.88;5024902;28;20551;-63
2023/12/05 05:35:12;;;;;;;0.40;0.40;;;;;;;3.84;100.00;97498.25;5023184;28;20049;-64
2023/12/05 05:37:39;;;;;;;0.40;0.40;;;;;;;3.44;100.00;97403.53;5022953;28;20089;-63
2023/12/05 05:40:07;;;;;;;0.40;0.40;;;;;;;3.99;100.00;97454.00;5024654;28;20042;-64
2023/12/05 05:42:33;;;;;;;0.40;0.40;;;;;;;4.09;100.00;97444.69;5024491;28;20061;-63
2023/12/05 05:45:00;;;;;;;0.40;0.40;;;;;;;3.93;100.00;97485.44;5024367;28;20083;-66
2023/12/05 05:47:28;;;;;;;0.30;0.30;;;;;;;3.19;100.00;97327.59;4676790;28;10000461;-64
2023/12/05 05:49:57;;;;;;;0.40;0.40;;;;;;;3.51;100.00;97381.97;5013288;28;20181;-65
2023/12/05 05:52:27;;;;;;;0.40;0.40;;;;;;;4.45;100.00;97470.72;5003739;28;20111;-66
2023/12/05 05:54:53;;;;;;;0.50;0.50;;;;;;;4.00;100.00;97419.19;5001979;28;20057;-67
2023/12/05 05:57:21;;;;;;;0.40;0.40;;;;;;;4.53;100.00;97472.69;5003489;28;20053;-67
2023/12/05 05:59:48;;;;;;;0.40;0.40;;;;;;;4.11;100.00;97382.91;5002054;28;20971;-66
2023/12/05 06:02:15;;;;;;;0.50;0.50;;;;;;;4.77;100.00;97466.72;5003746;28;20056;-66
2023/12/05 06:04:42;;;;;;;0.50;0.50;;;;;;;4.82;100.00;97463.78;5022207;28;20051;-66
2023/12/05 06:07:09;;;;;;;0.50;0.50;;;;;;;4.17;100.00;97354.22;5024273;28;20051;-66
2023/12/05 06:09:36;;;;;;;0.50;0.50;;;;;;;4.96;99.94;97471.88;5024141;28;20081;-66
2023/12/05 06:12:04;;;;;;;0.40;0.40;;;;;;;4.93;99.61;97470.59;5024473;28;20839;-66
2023/12/05 06:14:31;;;;;;;0.40;0.40;;;;;;;4.89;99.52;97468.78;5022992;28;20104;-67
2023/12/05 06:16:57;;;;;;;0.45;0.45;;;;;;;5.00;99.83;97468.16;5024384;28;20424;-67
2023/12/05 06:19:24;;;;;;;0.50;0.50;;;;;;;5.05;99.58;97483.66;5024485;28;20057;-67
2023/12/05 06:21:51;;;;;;;0.50;0.50;;;;;;;5.12;99.80;97478.50;5023934;28;20061;-66
2023/12/05 06:24:17;;;;;;;0.50;0.50;;;;;;;5.06;99.52;97480.59;5023969;28;20100;-66
2023/12/05 06:26:44;;;;;;;0.50;0.50;;;;;;;5.12;100.00;97479.28;5024148;28;20060;-66
2023/12/05 06:29:12;;;;;;;0.50;0.50;;;;;;;5.14;100.00;97470.75;5023952;28;20140;-67
2023/12/05 06:31:39;;;;;;;0.43;0.43;;;;;;;5.05;100.00;97478.97;5024293;28;20168;-67
2023/12/05 06:34:06;;;;;;;0.50;0.50;;;;;;;4.83;100.00;97472.84;5023031;28;20141;-67
2023/12/05 06:36:33;;;;;;;0.47;0.47;;;;;;;4.83;100.00;97437.16;5022249;28;20049;-67
2023/12/05 06:38:59;;;;;;;0.43;0.43;;;;;;;4.93;100.00;97454.13;5023941;28;20092;-68
2023/12/05 06:41:26;;;;;;;0.50;0.50;;;;;;;4.96;100.00;97452.66;5022534;28;20068;-67
2023/12/05 06:43:53;;;;;;;0.50;0.50;;;;;;;4.97;100.00;97452.34;5022935;28;20068;-67
2023/12/05 06:46:20;;;;;;;0.40;0.40;;;;;;;4.93;100.00;97464.28;5022582;28;20076;-67
2023/12/05 06:48:48;;;;;;;0.50;0.50;;;;;;;4.93;100.00;97464.28;5024203;28;20075;-66
2023/12/05 06:51:18;;;;;;;0.50;0.50;;;;;;;4.93;100.00;97464.28;5024020;28;20057;-66
2023/12/05 06:53:48;;;;;;;0.43;0.43;;;;;;;5.09;100.00;97459.91;5022551;28;20554;-67
2023/12/05 06:56:19;;;;;;;0.50;0.50;;;;;;;5.18;100.00;97455.22;5023809;28;20054;-66
2023/12/05 06:58:46;;;;;;;0.50;0.50;;;;;;;3.67;100.00;97257.16;5019832;28;20076;-63
2023/12/05 07:01:13;;;;;;;0.50;0.50;;;;;;;5.13;100.00;97491.06;5012081;28;20077;-63
2023/12/05 07:03:40;;;;;;;0.50;0.50;;;;;;;4.85;100.00;97412.97;5015164;28;20065;-64
2023/12/05 07:06:16;;;;;;;0.50;0.50;;;;;;;3.80;100.00;97261.69;5022840;28;20053;-70
2023/12/05 07:08:43;;;;;;;0.50;0.50;;;;;;;2.81;98.84;97094.75;5017051;28;20054;-74
2023/12/05 07:11:10;;;;;;;0.50;0.50;;;;;;;5.04;100.00;97460.91;5014677;28;20587;-70
2023/12/05 07:13:37;;;;;;;0.45;0.45;;;;;;;4.57;100.00;97387.78;5016936;28;20042;-71
2023/12/05 07:16:04;;;;;;;0.50;0.50;;;;;;;4.62;100.00;97366.50;5012466;28;20593;-67
2023/12/05 07:18:31;;;;;;;0.50;0.50;;;;;;;4.55;100.00;97352.44;5022411;28;20046;-65
2023/12/05 07:20:58;;;;;;;0.50;0.50;;;;;;;4.35;100.00;97322.94;5020135;28;20590;-67
2023/12/05 07:23:25;;;;;;;0.50;0.50;;;;;;;5.21;98.93;97460.88;5025153;28;20129;-66
2023/12/05 07:25:54;;;;;;;0.60;0.60;;;;;;;5.19;98.00;97457.63;5010080;28;20118;-66
2023/12/05 07:28:21;;;;;;;0.43;0.43;;;;;;;2.90;97.94;97100.22;5014224;28;20055;-69
2023/12/05 07:30:48;;;;;;;0.50;0.50;;;;;;;5.19;97.43;97457.63;5024962;28;20138;-66
2023/12/05 07:33:15;;;;;;;0.50;0.50;;;;;;;4.17;98.32;97293.91;5026665;28;20052;-67
2023/12/05 07:35:42;;;;;;;0.45;0.45;;;;;;;4.96;99.42;97425.22;5025312;28;20079;-70
2023/12/05 07:38:09;;;;;;;0.50;0.50;;;;;;;4.11;99.78;97317.13;5025703;28;20080;-66
2023/12/05 07:40:35;;;;;;;0.50;0.50;;;;;;;4.63;98.19;97351.63;5036152;28;20053;-68
2023/12/05 07:43:02;;;;;;;0.50;0.50;;;;;;;5.15;98.71;97450.38;5024557;28;20077;-69
2023/12/05 07:45:29;;;;;;;0.50;0.50;;;;;;;5.19;100.00;97452.16;5025776;28;20048;-62
2023/12/05 07:47:56;;;;;;;0.50;0.50;;;;;;;5.26;100.00;97452.47;5024219;28;20056;-63
2023/12/05 07:50:23;;;;;;;0.50;0.50;;;;;;;5.43;100.00;97451.59;5023488;28;20049;-62
2023/12/05 07:52:51;;;;;;;0.50;0.50;;;;;;;5.39;100.00;97450.66;5025020;28;20216;-65
2023/12/05 07:55:18;;;;;;;0.50;0.50;;;;;;;5.49;100.00;97455.78;5025781;28;20463;-69
2023/12/05 07:57:47;;;;;;;0.50;0.50;;;;;;;5.08;99.56;97367.69;5024457;28;20071;-62
2023/12/05 08:00:18;;;;;;;0.47;0.47;;;;;;;4.57;99.91;97281.63;5022002;28;20124;-68
2023/12/05 08:02:46;;;;;;;0.50;0.50;;;;;;;5.49;99.45;97445.63;5022315;28;20056;-62
2023/12/05 08:05:13;;;;;;;0.50;0.50;;;;;;;4.60;100.00;97302.91;5018701;28;20067;-66
2023/12/05 08:07:40;;;;;;;0.60;0.60;;;;;;;5.58;100.00;97440.09;5025722;28;20147;-68
2023/12/05 08:10:08;;;;;;;0.50;0.50;;;;;;;5.41;100.00;97393.44;5025674;28;20152;-67
2023/12/05 08:12:35;;;;;;;0.50;0.50;;;;;;;3.37;99.70;97082.88;5017302;28;20584;-74
2023/12/05 08:15:03;;;;;;;0.50;0.50;;;;;;;5.72;100.00;97402.22;5015555;28;20064;-67
2023/12/05 08:17:30;;;;;;;0.57;0.57;;;;;;;5.86;98.49;97449.56;5008282;28;20143;-67
2023/12/05 08:19:57;;;;;;;0.50;0.50;;;;;;;5.23;97.60;97321.28;5010006;28;20096;-70
2023/12/05 08:22:25;;;;;;;0.50;0.50;;;;;;;5.58;98.42;97360.44;5007040;28;20497;-66
2023/12/05 08:24:52;;;;;;;0.60;0.60;;;;;;;5.83;98.60;97367.75;5023490;28;20041;-65
2023/12/05 08:27:19;;;;;;;0.50;0.50;;;;;;;5.79;95.65;97355.78;5025632;28;20057;-66
2023/12/05 08:29:46;;;;;;;0.50;0.50;;;;;;;5.68;95.13;97338.06;5021709;28;20129;-74
2023/12/05 08:32:13;;;;;;;0.60;0.60;;;;;;;6.10;95.47;97361.78;5022822;28;20113;-64
2023/12/05 08:34:40;;;;;;;0.50;0.50;;;;;;;6.60;92.92;97431.31;5025342;28;20063;-66
2023/12/05 08:37:07;;;;;;;0.50;0.50;;;;;;;6.32;90.56;97363.41;5024074;28;20061;-68
2023/12/05 08:39:34;;;;;;;0.60;0.60;;;;;;;6.40;89.24;97366.09;5023721;28;20052;-63
2023/12/05 08:42:01;;;;;;;0.57;0.57;;;;;;;6.22;89.09;97358.28;5012501;28;20052;-70
2023/12/05 08:44:28;;;;;;;0.60;0.60;;;;;;;6.72;90.30;97406.59;5020836;28;20579;-73
2023/12/05 08:46:55;;;;;;;0.60;0.60;;;;;;;6.62;89.08;97407.03;5024348;28;20564;-73
2023/12/05 08:49:21;;;;;;;0.60;0.60;;;;;;;6.14;90.73;97406.72;5025324;28;20049;-68
2023/12/05 08:51:48;;;;;;;0.60;0.60;;;;;;;5.65;95.61;97390.91;5012102;28;20061;-73
2023/12/05 08:54:15;;;;;;;0.55;0.55;;;;;;;6.04;95.59;97385.09;5019223;28;20049;-73
2023/12/05 08:56:42;;;;;;;0.50;0.50;;;;;;;5.31;97.93;97338.88;5022159;28;20049;-63
2023/12/05 08:59:09;;;;;;;0.60;0.60;;;;;;;4.68;98.79;97289.50;5020597;28;20056;-73
2023/12/05 09:01:36;;;;;;;0.50;0.50;;;;;;;5.39;99.20;97335.31;5009358;28;20064;-72
2023/12/05 09:04:03;;;;;;;0.40;0.40;;;;;;;5.86;97.33;97383.59;5007195;28;20552;-61
2023/12/05 09:06:30;;;;;;;0.50;0.50;;;;;;;5.78;97.51;97431.13;5004123;28;20104;-72
2023/12/05 09:08:58;;;;;;;0.50;0.50;;;;;;;5.26;95.95;97245.69;5014653;28;20523;-68
2023/12/05 09:11:26;;;;;;;0.50;0.50;;;;;;;5.90;95.60;97346.03;5024995;28;20115;-63
2023/12/05 09:13:53;;;;;;;0.50;0.50;;;;;;;5.57;95.79;97287.34;5017531;28;20484;-64
2023/12/05 09:16:20;;;;;;;0.55;0.55;;;;;;;5.57;95.64;97288.19;5016268;28;20049;-66
2023/12/05 09:18:47;;;;;;;0.50;0.50;;;;;;;5.32;94.41;97214.97;5009390;28;20061;-69
2023/12/05 09:21:14;;;;;;;0.57;0.57;;;;;;;6.30;93.75;97382.97;5009472;28;20049;-66
2023/12/05 09:23:40;;;;;;;0.50;0.50;;;;;;;5.78;94.21;97277.22;5019850;28;20062;-70
2023/12/05 09:26:07;;;;;;;0.55;0.55;;;;;;;5.89;92.54;97281.22;5023206;28;20052;-67
2023/12/05 09:28:34;;;;;;;0.50;0.50;;;;;;;6.46;94.11;97364.75;5011304;28;20137;-66
2023/12/05 09:31:01;;;;;;;0.60;0.60;;;;;;;5.49;92.86;97192.06;5004912;28;20571;-72
2023/12/05 09:33:28;;;;;;;0.50;0.50;;;;;;;6.57;92.45;97365.94;5012804;28;20049;-74
2023/12/05 09:35:56;;;;;;;0.50;0.50;;;;;;;6.57;92.75;97359.63;5024581;28;20084;-66
2023/12/05 09:38:26;;;;;;;0.60;0.60;;;;;;;5.82;92.70;97279.00;5027133;28;20061;-73
2023/12/05 09:40:53;;;;;;;0.50;0.50;;;;;;;6.63;92.53;97342.56;5004665;28;20212;-76
2023/12/05 09:43:25;;;;;;;0.60;0.60;;;;;;;6.57;91.09;97299.91;5007834;28;20057;-62
2023/12/05 09:46:07;;;;;;;0.60;0.60;;;;;;;3.26;91.21;96799.69;5015262;28;20131;-69
2023/12/05 09:48:43;;;;;;;0.60;0.60;;;;;;;6.64;93.71;97322.16;5005118;28;20145;-67
2023/12/05 09:51:14;;;;;;;0.60;0.60;;;;;;;6.93;94.36;97307.47;5010130;28;20145;-69
2023/12/05 09:53:42;;;;;;;0.60;0.60;;;;;;;4.88;94.04;96951.25;5006916;28;20069;-62
2023/12/05 09:56:12;;;;;;;0.63;0.63;;;;;;;7.50;92.93;97294.47;5004985;28;20064;-70
2023/12/05 09:58:43;;;;;;;0.60;0.60;;;;;;;7.56;90.71;97288.38;5024445;28;20835;-66
2023/12/05 10:01:14;;;;;;;0.60;0.60;;;;;;;7.55;91.00;97286.78;5015767;28;20046;-64
2023/12/05 10:03:44;;;;;;;0.60;0.60;;;;;;;7.14;88.92;97193.31;5013395;28;20049;-71
2023/12/05 10:06:11;;;;;;;0.70;0.70;;;;;;;7.95;87.37;97277.78;5023959;28;20579;-72
2023/12/05 10:08:40;;;;;;;0.60;0.60;;;;;;;7.92;85.54;97278.47;5024089;28;20420;-74
2023/12/05 10:11:09;;;;;;;0.60;0.60;;;;;;;7.49;87.22;97216.47;5024087;28;20076;-75
2023/12/05 10:13:38;;;;;;;0.60;0.60;;;;;;;7.95;87.37;97272.25;5024365;28;20128;-73
2023/12/05 10:16:06;;;;;;;0.60;0.60;;;;;;;7.28;85.57;97210.31;5024028;28;20041;-72
2023/12/05 10:18:35;;;;;;;0.52;0.52;;;;;;;7.90;87.27;97269.72;5024174;28;20049;-74
2023/12/05 10:21:02;;;;;;;0.70;0.70;;;;;;;7.95;86.97;97255.72;5017997;28;20141;-70
2023/12/05 10:23:30;;;;;;;0.70;0.70;;;;;;;8.11;86.28;97251.06;5010036;28;20057;-74
2023/12/05 10:25:57;;;;;;;0.60;0.60;;;;;;;7.82;84.70;97180.47;5012132;28;20065;-69
2023/12/05 10:28:24;;;;;;;0.70;0.70;;;;;;;8.22;85.47;97254.94;5021798;28;20689;-75
2023/12/05 10:30:51;;;;;;;0.60;0.60;;;;;;;8.08;85.59;97244.28;5019539;28;20483;-70
2023/12/05 10:33:20;;;;;;;0.70;0.70;;;;;;;7.62;86.62;97182.25;5009189;28;20500;-66
2023/12/05 10:35:48;;;;;;;0.65;0.65;;;;;;;6.59;85.96;96994.09;5021482;28;20050;-68
2023/12/05 10:38:19;;;;;;;0.60;0.60;;;;;;;8.08;86.20;97210.41;5019123;28;20202;-67
2023/12/05 10:40:57;;;;;;;0.60;0.60;;;;;;;7.62;86.69;97129.88;5003247;28;20065;-69
2023/12/05 10:43:26;;;;;;;0.60;0.60;;;;;;;6.89;89.13;97122.84;5022071;28;20056;-69
2023/12/05 10:45:54;;;;;;;0.60;0.60;;;;;;;6.72;93.50;97169.88;5004533;28;20100;-70
2023/12/05 10:48:24;;;;;;;0.68;0.68;;;;;;;6.44;93.56;97014.84;5009703;28;20531;-75
2023/12/05 10:50:52;;;;;;;0.65;0.65;;;;;;;7.32;89.65;97150.59;5028017;28;20067;-75
2023/12/05 10:53:19;;;;;;;0.60;0.60;;;;;;;6.74;94.76;97203.38;5027680;28;20089;-75
2023/12/05 10:55:46;;;;;;;0.60;0.60;;;;;;;5.93;100.00;97104.25;5027451;28;20053;-70
2023/12/05 10:58:14;;;;;;;0.60;0.60;;;;;;;5.65;100.00;97124.38;5022533;28;20527;-70
2023/12/05 11:00:41;;;;;;;0.60;0.60;;;;;;;6.66;100.00;97189.69;5007786;28;20141;-75
2023/12/05 11:03:08;;;;;;;0.50;0.50;;;;;;;5.44;100.00;97109.84;5012200;28;20045;-75
2023/12/05 11:05:35;;;;;;;0.50;0.50;;;;;;;5.33;100.00;96977.63;5026016;28;20140;-69
2023/12/05 11:08:04;;;;;;;0.60;0.60;;;;;;;6.89;100.00;97210.97;5027356;28;20124;-75
2023/12/05 11:10:31;;;;;;;0.60;0.60;;;;;;;6.34;98.80;97070.31;5027079;28;20059;-75
2023/12/05 11:13:00;;;;;;;0.60;0.60;;;;;;;6.62;99.46;97181.34;5027539;28;20488;-69
2023/12/05 11:15:39;;;;;;;0.60;0.60;;;;;;;6.36;100.00;97131.31;5026379;28;20057;-70
2023/12/05 11:18:18;;;;;;;0.60;0.60;;;;;;;6.67;100.00;97178.34;5027822;28;20144;-70
2023/12/05 11:20:58;;;;;;;0.60;0.60;;;;;;;7.03;99.34;97172.91;5027752;28;20163;-66
2023/12/05 11:24:02;;;;;;;0.60;0.60;;;;;;;6.86;98.77;97170.34;5014416;28;20244;-69
2023/12/05 11:27:54;;;;;;;0.50;0.50;;;;;;;7.06;99.49;97158.44;5028912;28;20063;-70
2023/12/05 11:30:42;;;;;;;0.60;0.60;;;;;;;6.91;99.73;97155.53;5014074;28;20064;-64
2023/12/05 11:33:47;;;;;;;0.60;0.60;;;;;;;6.93;98.48;97159.59;5031250;28;20072;-67
2023/12/05 11:36:44;;;;;;;0.60;0.60;;;;;;;6.14;100.00;97160.03;5041168;28;20186;-69
2023/12/05 11:39:11;;;;;;;0.60;0.60;;;;;;;6.23;100.00;97157.16;5027326;28;20083;-63
2023/12/05 11:41:38;;;;;;;0.50;0.50;;;;;;;5.99;100.00;97143.34;5036002;28;20065;-65
2023/12/05 11:44:14;;;;;;;0.60;0.60;;;;;;;6.08;100.00;97144.06;5035766;28;20045;-67
2023/12/05 11:46:42;;;;;;;0.50;0.50;;;;;;;5.58;100.00;97066.44;5036391;28;20049;-68